Time;durP1;ratioP1;P1;durP2;ratioP2;P2;SDS_P1;SDS_P2;PMS_P1;PMS_P2;Temp;Humidity;BMP_temperature;BMP_pressure;BME280_temperature;BME280_humidity;BME280_pressure;Samples;Min_cycle;Max_cycle;Signal;HPM_P1;HPM_P2
2022/01/31 00:02:23;;;;;;;1.83;0.25;;;;;;;9.06;100.00;99928.63;5043091;28;20044;-53
2022/01/31 00:05:26;;;;;;;1.98;0.30;;;;;;;9.16;100.00;99910.72;5048989;28;20056;-53
2022/01/31 00:08:31;;;;;;;2.00;0.63;;;;;;;9.24;100.00;99927.06;5048216;28;20052;-53
2022/01/31 00:11:41;;;;;;;0.10;0.10;;;;;;;9.22;100.00;99922.00;5048849;28;20044;-54
2022/01/31 00:14:49;;;;;;;0.30;0.30;;;;;;;9.14;100.00;99951.28;5068704;28;20056;-53
2022/01/31 00:17:52;;;;;;;0.50;0.40;;;;;;;9.12;100.00;99949.00;5048117;28;20120;-53
2022/01/31 00:20:56;;;;;;;13.15;2.20;;;;;;;9.17;100.00;99961.50;5048053;28;20048;-54
2022/01/31 00:23:59;;;;;;;1.10;0.10;;;;;;;9.03;100.00;99951.00;5034646;28;20493;-54
2022/01/31 00:27:04;;;;;;;3.60;0.90;;;;;;;9.01;100.00;99953.47;5035123;28;20473;-54
2022/01/31 00:30:08;;;;;;;0.10;0.08;;;;;;;8.95;100.00;99933.88;5035632;28;20052;-54
2022/01/31 00:33:12;;;;;;;0.20;0.20;;;;;;;8.95;100.00;99935.88;5035242;28;20129;-53
2022/01/31 00:36:16;;;;;;;0.15;0.15;;;;;;;8.86;100.00;99942.19;5034901;28;20044;-53
2022/01/31 00:39:20;;;;;;;0.20;0.10;;;;;;;8.87;100.00;99932.63;5034082;28;20437;-54
2022/01/31 00:42:25;;;;;;;1.98;0.52;;;;;;;8.88;100.00;99936.19;5025101;28;20040;-54
2022/01/31 00:45:31;;;;;;;0.10;0.10;;;;;;;8.81;100.00;99945.59;5025295;28;20504;-54
2022/01/31 00:48:41;;;;;;;3.08;0.80;;;;;;;8.69;100.00;99970.69;5030724;28;20053;-55
2022/01/31 00:51:44;;;;;;;7.72;0.98;;;;;;;8.61;100.00;99986.13;5034290;28;20048;-54
2022/01/31 00:54:47;;;;;;;0.80;0.65;;;;;;;8.52;100.00;99967.44;5034379;28;20052;-54
2022/01/31 00:57:51;;;;;;;0.38;0.30;;;;;;;8.42;100.00;99971.44;5033123;28;20052;-54
2022/01/31 01:00:54;;;;;;;0.13;0.13;;;;;;;8.52;100.00;99970.22;5034539;28;20048;-54
2022/01/31 01:03:57;;;;;;;0.10;0.10;;;;;;;8.53;100.00;99929.34;5034461;28;20068;-54
2022/01/31 01:07:01;;;;;;;0.20;0.20;;;;;;;8.60;100.00;99962.38;5034463;28;20044;-54
2022/01/31 01:10:06;;;;;;;0.20;0.20;;;;;;;8.70;100.00;99959.16;5033672;28;20046;-54
2022/01/31 01:13:09;;;;;;;0.10;0.10;;;;;;;8.66;100.00;99933.56;5013585;28;20057;-54
2022/01/31 01:16:13;;;;;;;5.10;1.05;;;;;;;8.75;100.00;99947.41;5014304;28;20057;-54
2022/01/31 01:19:16;;;;;;;15.35;0.43;;;;;;;8.77;100.00;99955.31;5014350;28;20056;-54
2022/01/31 01:22:19;;;;;;;0.20;0.20;;;;;;;8.91;100.00;99949.13;5028927;28;20485;-53
2022/01/31 01:25:23;;;;;;;13.90;0.88;;;;;;;8.83;100.00;99937.56;5034206;28;20052;-54
2022/01/31 01:28:27;;;;;;;0.30;0.30;;;;;;;8.87;100.00;99957.63;5033876;28;20068;-54
2022/01/31 01:31:30;;;;;;;18.55;2.10;;;;;;;8.96;100.00;99940.19;5033483;28;20048;-53
2022/01/31 01:34:34;;;;;;;0.10;0.10;;;;;;;9.02;100.00;99944.69;5033343;28;20061;-54
2022/01/31 01:37:38;;;;;;;0.17;0.17;;;;;;;9.12;100.00;99954.56;5033920;28;20052;-54
2022/01/31 01:40:43;;;;;;;1.55;1.30;;;;;;;9.10;100.00;99947.91;5032204;28;20421;-54
2022/01/31 01:43:46;;;;;;;2.55;0.52;;;;;;;9.10;100.00;99962.56;5013927;28;20052;-53
2022/01/31 01:46:51;;;;;;;11.38;0.77;;;;;;;9.19;100.00;99964.59;5014380;28;20052;-53
2022/01/31 01:49:55;;;;;;;0.13;0.13;;;;;;;8.98;100.00;99976.63;5013729;28;20048;-54
2022/01/31 01:52:59;;;;;;;0.63;0.25;;;;;;;8.87;100.00;99921.53;5013594;28;20061;-53
2022/01/31 01:56:03;;;;;;;1.48;0.45;;;;;;;8.79;100.00;99959.16;5014012;28;20065;-54
2022/01/31 01:59:07;;;;;;;12.95;1.58;;;;;;;8.79;100.00;99931.38;5021575;28;20056;-54
2022/01/31 02:02:10;;;;;;;0.55;0.30;;;;;;;8.84;100.00;99966.88;5032848;28;20481;-53
2022/01/31 02:05:13;;;;;;;0.75;0.25;;;;;;;8.87;100.00;99965.97;5033748;28;20053;-54
2022/01/31 02:08:18;;;;;;;0.85;0.32;;;;;;;8.94;100.00;99964.91;5033073;28;20056;-54
2022/01/31 02:11:21;;;;;;;0.10;0.10;;;;;;;8.98;100.00;99965.50;5033595;28;20041;-54
2022/01/31 02:14:25;;;;;;;0.15;0.15;;;;;;;8.98;100.00;99954.41;5033239;28;20496;-53
2022/01/31 02:17:28;;;;;;;1.52;0.65;;;;;;;8.96;100.00;99951.31;5033387;28;20052;-54
2022/01/31 02:20:40;;;;;;;4.88;1.08;;;;;;;8.90;100.00;99951.13;5033122;28;20060;-53
2022/01/31 02:23:44;;;;;;;0.90;0.65;;;;;;;8.88;100.00;99934.16;5033458;28;20048;-53
2022/01/31 02:26:48;;;;;;;10.18;1.27;;;;;;;8.96;100.00;99940.97;5033026;28;20049;-53
2022/01/31 02:29:52;;;;;;;0.40;0.40;;;;;;;8.97;100.00;100036.94;5033126;28;20128;-53
2022/01/31 02:32:55;;;;;;;0.63;0.20;;;;;;;8.71;100.00;100024.53;5032420;28;20147;-54
2022/01/31 02:36:00;;;;;;;0.20;0.20;;;;;;;7.98;100.00;100047.63;5032846;28;20093;-53
2022/01/31 02:39:05;;;;;;;1.77;0.30;;;;;;;7.63;100.00;100008.91;5032422;28;20052;-54
2022/01/31 02:42:09;;;;;;;0.43;0.35;;;;;;;7.37;100.00;99995.63;5032638;28;20052;-55
2022/01/31 02:45:12;;;;;;;0.10;0.10;;;;;;;7.20;100.00;99975.63;5032505;28;20385;-54
2022/01/31 02:48:19;;;;;;;2.20;0.63;;;;;;;7.08;100.00;99978.47;5032073;28;20056;-53
2022/01/31 02:51:25;;;;;;;2.75;1.10;;;;;;;7.05;100.00;99973.81;5032284;28;20044;-54
2022/01/31 02:54:30;;;;;;;1.65;0.65;;;;;;;7.29;100.00;99988.78;5032760;28;20299;-53
2022/01/31 02:57:34;;;;;;;0.10;0.10;;;;;;;7.38;100.00;99959.16;5032878;28;20052;-54
2022/01/31 03:00:38;;;;;;;1.92;1.00;;;;;;;7.40;100.00;99995.50;5032718;28;20056;-53
2022/01/31 03:03:42;;;;;;;0.10;0.10;;;;;;;7.40;100.00;99987.19;5032489;28;20057;-53
2022/01/31 03:06:49;;;;;;;0.10;0.10;;;;;;;7.42;100.00;99993.06;5032256;28;20390;-53
2022/01/31 03:09:52;;;;;;;1.85;1.00;;;;;;;7.43;100.00;99977.97;5032555;28;20052;-53
2022/01/31 03:12:56;;;;;;;0.13;0.10;;;;;;;7.46;100.00;100007.56;5032361;28;20045;-53
2022/01/31 03:15:59;;;;;;;3.40;0.38;;;;;;;7.52;100.00;100004.97;5032491;28;20200;-53
2022/01/31 03:19:03;;;;;;;0.80;0.47;;;;;;;7.56;100.00;100009.16;5031732;28;20501;-53
2022/01/31 03:22:07;;;;;;;0.25;0.25;;;;;;;7.64;100.00;100007.66;5032575;28;20052;-52
2022/01/31 03:25:11;;;;;;;0.40;0.40;;;;;;;7.68;100.00;100026.94;5032404;28;20065;-54
2022/01/31 03:28:14;;;;;;;0.20;0.20;;;;;;;7.72;100.00;100012.94;5032367;28;20056;-52
2022/01/31 03:31:20;;;;;;;0.10;0.10;;;;;;;7.70;100.00;99996.78;5032349;28;20040;-52
2022/01/31 03:34:25;;;;;;;0.50;0.50;;;;;;;7.55;100.00;100018.72;5032356;28;20116;-53
2022/01/31 03:37:29;;;;;;;2.22;0.30;;;;;;;7.70;100.00;100007.09;5032014;28;20064;-53
2022/01/31 03:40:33;;;;;;;1.00;0.45;;;;;;;7.62;100.00;100023.22;5032019;28;20088;-54
2022/01/31 03:43:37;;;;;;;0.10;0.10;;;;;;;7.56;100.00;100013.91;5019911;28;20057;-53
2022/01/31 03:46:40;;;;;;;1.35;0.40;;;;;;;7.49;100.00;100028.03;5012589;28;20057;-54
2022/01/31 03:49:44;;;;;;;4.25;1.15;;;;;;;7.46;100.00;100026.16;5012555;28;20049;-54
2022/01/31 03:52:48;;;;;;;11.45;0.90;;;;;;;7.37;100.00;100043.50;5031167;28;20045;-54
2022/01/31 03:55:52;;;;;;;0.38;0.38;;;;;;;7.26;100.00;100045.84;5032432;28;20056;-54
2022/01/31 03:58:56;;;;;;;0.10;0.10;;;;;;;7.28;100.00;100031.53;5036383;28;20404;-54
2022/01/31 04:01:59;;;;;;;5.38;0.95;;;;;;;7.29;100.00;100022.81;5035609;28;20068;-54
2022/01/31 04:05:03;;;;;;;18.75;1.48;;;;;;;7.34;100.00;100024.97;5035927;28;20057;-53
2022/01/31 04:08:07;;;;;;;14.52;1.55;;;;;;;7.39;100.00;100020.88;5035341;28;20052;-54
2022/01/31 04:11:11;;;;;;;0.10;0.10;;;;;;;7.43;100.00;100038.13;5035239;28;20054;-53
2022/01/31 04:14:14;;;;;;;16.45;0.77;;;;;;;7.56;100.00;100039.63;5035789;28;20061;-53
2022/01/31 04:17:20;;;;;;;2.50;1.25;;;;;;;7.60;100.00;100036.75;5035504;28;20057;-54
2022/01/31 04:20:23;;;;;;;2.92;0.43;;;;;;;7.60;100.00;100009.78;5035336;28;20060;-53
2022/01/31 04:23:28;;;;;;;1.50;0.90;;;;;;;7.70;100.00;99996.00;5035656;28;20425;-53
2022/01/31 04:26:33;;;;;;;0.10;0.10;;;;;;;7.79;100.00;99999.63;5035303;28;20053;-53
2022/01/31 04:29:40;;;;;;;0.82;0.47;;;;;;;7.85;100.00;100002.56;5035464;28;20052;-54
2022/01/31 04:32:43;;;;;;;2.80;1.17;;;;;;;7.88;100.00;100001.66;5034726;28;20048;-53
2022/01/31 04:35:47;;;;;;;4.72;0.88;;;;;;;7.96;100.00;100009.25;5035782;28;20067;-53
2022/01/31 04:38:50;;;;;;;3.30;1.38;;;;;;;7.99;100.00;100004.81;5034935;28;20048;-53
2022/01/31 04:41:55;;;;;;;0.43;0.43;;;;;;;8.06;100.00;100030.25;5035005;28;20052;-53
2022/01/31 04:45:00;;;;;;;1.23;1.13;;;;;;;8.05;100.00;99984.34;5034893;28;20481;-53
2022/01/31 04:48:05;;;;;;;9.30;1.58;;;;;;;8.02;100.00;99995.56;5034788;28;20056;-53
2022/01/31 04:51:08;;;;;;;1.40;0.80;;;;;;;7.93;100.00;100010.16;5034363;28;20044;-53
2022/01/31 04:54:11;;;;;;;13.90;0.77;;;;;;;7.92;100.00;100019.72;5034846;28;20056;-53
2022/01/31 04:57:16;;;;;;;1.00;0.57;;;;;;;7.81;100.00;100024.88;5035069;28;20485;-53
2022/01/31 05:00:20;;;;;;;6.85;0.63;;;;;;;7.72;100.00;100015.72;5034730;28;20095;-53
2022/01/31 05:03:24;;;;;;;2.67;0.82;;;;;;;7.64;100.00;100021.50;5034763;28;20049;-54
2022/01/31 05:06:33;;;;;;;0.40;0.40;;;;;;;7.56;100.00;100013.91;5034591;28;20060;-54
2022/01/31 05:09:37;;;;;;;0.10;0.10;;;;;;;7.54;100.00;100042.09;5034462;28;20124;-53
2022/01/31 05:12:40;;;;;;;2.28;0.98;;;;;;;7.51;100.00;100051.28;5034412;28;20044;-53
2022/01/31 05:15:45;;;;;;;0.20;0.20;;;;;;;7.62;100.00;100089.72;5056598;28;20056;-54
2022/01/31 05:18:48;;;;;;;7.78;0.80;;;;;;;7.71;100.00;100084.25;5034650;28;20048;-54
2022/01/31 05:21:52;;;;;;;7.07;0.95;;;;;;;7.74;100.00;100118.59;5034452;28;20052;-54
2022/01/31 05:24:55;;;;;;;1.45;0.77;;;;;;;7.74;100.00;100113.06;5034288;28;20072;-54
2022/01/31 05:27:59;;;;;;;4.03;0.70;;;;;;;7.74;100.00;100119.38;5034213;28;20060;-54
2022/01/31 05:31:02;;;;;;;0.57;0.22;;;;;;;7.82;100.00;100119.94;5033863;28;20159;-54
2022/01/31 05:34:06;;;;;;;0.88;0.70;;;;;;;7.80;100.00;100128.66;5034324;28;20060;-54
2022/01/31 05:37:09;;;;;;;3.20;1.80;;;;;;;7.78;100.00;100127.56;5034093;28;20056;-54
2022/01/31 05:40:13;;;;;;;0.52;0.45;;;;;;;7.60;100.00;100126.19;5034127;28;20500;-54
2022/01/31 05:43:19;;;;;;;0.45;0.45;;;;;;;7.30;100.00;100107.44;5027044;28;20040;-55
2022/01/31 05:46:22;;;;;;;0.20;0.20;;;;;;;7.08;100.00;100106.59;5024384;28;20052;-55
2022/01/31 05:49:26;;;;;;;0.32;0.32;;;;;;;6.90;100.00;100095.34;5024528;28;20052;-54
2022/01/31 05:52:30;;;;;;;2.55;0.38;;;;;;;6.76;100.00;100101.31;5029073;28;20052;-54
2022/01/31 05:55:33;;;;;;;0.40;0.40;;;;;;;6.62;100.00;100112.84;5023482;28;20048;-54
2022/01/31 05:58:37;;;;;;;0.80;0.80;;;;;;;6.50;100.00;100105.28;5024262;28;20125;-54
2022/01/31 06:01:40;;;;;;;3.20;0.60;;;;;;;6.53;100.00;100098.88;5031847;28;20048;-54
2022/01/31 06:04:44;;;;;;;0.80;0.70;;;;;;;6.53;100.00;100132.09;5030874;28;20053;-54
2022/01/31 06:07:47;;;;;;;1.05;0.20;;;;;;;6.47;100.00;100118.03;5025052;28;20052;-54
2022/01/31 06:10:51;;;;;;;0.10;0.10;;;;;;;6.50;100.00;100116.34;5014610;28;20076;-54
2022/01/31 06:13:55;;;;;;;2.55;1.08;;;;;;;6.52;100.00;100141.63;5018485;28;20057;-54
2022/01/31 06:16:59;;;;;;;0.60;0.52;;;;;;;6.57;100.00;100171.47;5021027;28;20052;-54
2022/01/31 06:20:03;;;;;;;0.10;0.10;;;;;;;6.60;100.00;100176.94;5028574;28;20397;-54
2022/01/31 06:23:06;;;;;;;5.57;0.43;;;;;;;6.61;100.00;100161.09;5021554;28;20044;-54
2022/01/31 06:26:10;;;;;;;1.40;0.50;;;;;;;6.60;100.00;100170.63;5029740;28;20068;-54
2022/01/31 06:29:13;;;;;;;0.10;0.10;;;;;;;6.65;100.00;100158.97;5024096;28;20049;-54
2022/01/31 06:32:18;;;;;;;0.63;0.63;;;;;;;6.65;100.00;100156.22;5032785;28;20045;-54
2022/01/31 06:35:22;;;;;;;0.10;0.10;;;;;;;6.72;100.00;100156.00;5033513;28;20148;-54
2022/01/31 06:38:28;;;;;;;1.05;0.95;;;;;;;6.74;100.00;100167.41;5032820;28;20067;-54
2022/01/31 06:41:32;;;;;;;0.30;0.30;;;;;;;6.75;100.00;100171.75;5033219;28;20112;-54
2022/01/31 06:44:37;;;;;;;11.20;1.02;;;;;;;6.84;100.00;100191.22;5033036;28;20053;-54
2022/01/31 06:47:40;;;;;;;0.20;0.20;;;;;;;6.99;100.00;100203.44;5032851;28;20068;-54
2022/01/31 06:50:44;;;;;;;12.68;0.63;;;;;;;7.14;100.00;100215.59;5032245;28;20056;-54
2022/01/31 06:53:48;;;;;;;0.20;0.20;;;;;;;7.17;100.00;100231.31;5032826;28;20044;-53
2022/01/31 06:56:52;;;;;;;0.20;0.20;;;;;;;7.17;100.00;100214.72;5032410;28;20052;-54
2022/01/31 06:59:56;;;;;;;2.05;0.73;;;;;;;7.10;100.00;100201.09;5032781;28;20056;-54
2022/01/31 07:03:00;;;;;;;0.20;0.10;;;;;;;7.01;100.00;100183.59;5032218;28;20056;-52
2022/01/31 07:06:03;;;;;;;0.10;0.10;;;;;;;6.97;100.00;100203.09;5032467;28;20056;-52
2022/01/31 07:09:07;;;;;;;3.40;0.40;;;;;;;6.87;100.00;100224.34;5012222;28;20061;-53
2022/01/31 07:12:12;;;;;;;2.40;0.30;;;;;;;6.87;100.00;100218.81;5026228;28;20052;-53
2022/01/31 07:15:17;;;;;;;0.17;0.17;;;;;;;6.83;100.00;100228.44;5032294;28;20065;-52
2022/01/31 07:18:20;;;;;;;0.10;0.10;;;;;;;6.81;100.00;100255.78;5032854;28;20405;-53
2022/01/31 07:21:32;;;;;;;0.28;0.20;;;;;;;6.78;100.00;100249.13;5032173;28;20048;-53
2022/01/31 07:27:39;;;;;;;0.22;0.22;;;;;;;6.71;100.00;100298.38;5031932;28;20406;-53
2022/01/31 07:30:49;;;;;;;0.20;0.20;;;;;;;6.70;100.00;100307.88;5032111;28;20057;-53
2022/01/31 07:33:52;;;;;;;9.85;1.33;;;;;;;6.69;100.00;100311.88;5036061;28;20056;-53
2022/01/31 07:36:55;;;;;;;0.10;0.10;;;;;;;6.74;100.00;100317.66;5036385;28;20060;-53
2022/01/31 07:39:59;;;;;;;0.10;0.10;;;;;;;6.71;100.00;100332.34;5036076;28;20049;-53
2022/01/31 07:43:03;;;;;;;0.55;0.35;;;;;;;6.67;100.00;100369.66;5036637;28;20041;-53
2022/01/31 07:46:07;;;;;;;0.35;0.35;;;;;;;6.69;100.00;100311.88;5036146;28;20053;-53
2022/01/31 07:49:10;;;;;;;0.10;0.10;;;;;;;6.79;100.00;100341.25;5036099;28;20508;-53
2022/01/31 07:52:13;;;;;;;0.10;0.10;;;;;;;6.84;100.00;100319.31;5030212;28;20040;-53
2022/01/31 07:55:17;;;;;;;0.47;0.40;;;;;;;6.84;100.00;100362.88;5033441;28;20072;-53
2022/01/31 07:58:20;;;;;;;6.70;0.95;;;;;;;6.81;100.00;100385.88;5036173;28;20390;-53
2022/01/31 08:01:26;;;;;;;0.43;0.43;;;;;;;6.79;100.00;100396.59;5035444;28;20091;-53
2022/01/31 08:04:30;;;;;;;11.43;0.47;;;;;;;6.72;100.00;100386.50;5035741;28;20709;-53
2022/01/31 08:07:37;;;;;;;0.45;0.45;;;;;;;6.65;100.00;100383.91;5034815;28;20052;-53
2022/01/31 08:10:42;;;;;;;0.70;0.65;;;;;;;6.68;100.00;100388.59;5035362;28;20056;-53
2022/01/31 08:13:45;;;;;;;0.10;0.10;;;;;;;6.65;100.00;100394.97;5035136;28;20064;-53
2022/01/31 08:16:48;;;;;;;2.28;0.80;;;;;;;6.71;100.00;100393.25;5035560;28;20382;-53
2022/01/31 08:19:52;;;;;;;4.75;0.30;;;;;;;6.76;100.00;100419.59;5035352;28;20052;-53
2022/01/31 08:22:55;;;;;;;0.10;0.00;;;;;;;6.81;100.00;100424.63;5035396;28;20369;-53
2022/01/31 08:26:01;;;;;;;0.43;0.43;;;;;;;6.75;100.00;100437.44;5034797;28;20060;-53
2022/01/31 08:29:16;;;;;;;0.10;0.10;;;;;;;6.91;100.00;100440.16;5034709;28;20048;-53
2022/01/31 08:32:33;;;;;;;0.20;0.20;;;;;;;6.90;100.00;100477.38;5034325;28;20057;-53
2022/01/31 08:35:50;;;;;;;6.65;0.25;;;;;;;6.92;100.00;100496.31;5035470;28;20061;-53
2022/01/31 08:38:54;;;;;;;7.03;0.90;;;;;;;6.84;100.00;100481.91;5034630;28;20056;-53
2022/01/31 08:41:58;;;;;;;0.80;0.35;;;;;;;6.90;100.00;100505.06;5035151;28;20057;-53
2022/01/31 08:45:03;;;;;;;0.52;0.20;;;;;;;7.02;100.00;100525.75;5035230;28;20048;-52
2022/01/31 08:48:06;;;;;;;1.00;0.80;;;;;;;7.07;100.00;100542.59;5035324;28;20060;-52
2022/01/31 08:51:11;;;;;;;2.10;0.30;;;;;;;7.20;100.00;100548.97;5034453;28;20049;-52
2022/01/31 08:54:15;;;;;;;0.10;0.10;;;;;;;7.25;100.00;100545.69;5034923;28;20045;-52
2022/01/31 08:57:18;;;;;;;11.90;0.47;;;;;;;7.20;100.00;100553.72;5034887;28;20060;-52
2022/01/31 09:00:33;;;;;;;0.10;0.10;;;;;;;7.19;100.00;100561.25;5034711;28;20045;-52
2022/01/31 09:03:55;;;;;;;2.50;0.22;;;;;;;7.17;100.00;100557.41;5014861;28;20048;-52
2022/01/31 09:07:00;;;;;;;7.82;0.90;;;;;;;7.26;100.00;100566.63;5019586;28;20048;-52
2022/01/31 09:10:05;;;;;;;17.50;1.05;;;;;;;7.26;100.00;100599.88;5034586;28;20056;-52
2022/01/31 09:13:10;;;;;;;21.38;1.08;;;;;;;7.15;100.00;100598.56;5013817;28;20045;-52
2022/01/31 09:16:14;;;;;;;0.98;0.55;;;;;;;7.02;100.00;100598.50;5014081;28;20053;-52
2022/01/31 09:19:18;;;;;;;1.85;0.45;;;;;;;7.10;100.00;100613.75;5013684;28;20049;-52
2022/01/31 09:22:21;;;;;;;0.10;0.10;;;;;;;7.13;100.00;100623.16;5029716;28;20043;-52
2022/01/31 09:25:27;;;;;;;18.52;0.55;;;;;;;7.19;100.00;100622.19;5034088;28;20402;-52
2022/01/31 09:28:31;;;;;;;0.10;0.10;;;;;;;7.37;100.00;100611.47;5034301;28;20052;-52
2022/01/31 09:31:35;;;;;;;19.13;1.05;;;;;;;7.54;100.00;100601.91;5034035;28;20398;-52
2022/01/31 09:34:39;;;;;;;2.03;0.90;;;;;;;7.67;100.00;100617.81;5033811;28;20489;-52
2022/01/31 09:37:42;;;;;;;0.10;0.10;;;;;;;7.82;100.00;100616.22;5034278;28;20052;-52
2022/01/31 09:40:46;;;;;;;0.10;0.03;;;;;;;8.01;100.00;100637.47;5019705;28;20049;-52
2022/01/31 09:47:06;;;;;;;0.45;0.32;;;;;;;8.11;100.00;100616.97;5014280;28;20497;-52
2022/01/31 09:50:11;;;;;;;3.72;1.45;;;;;;;8.03;100.00;100623.94;5013984;28;20049;-52
2022/01/31 09:53:14;;;;;;;0.10;0.10;;;;;;;8.05;100.00;100629.81;5014079;28;20049;-52
2022/01/31 09:56:25;;;;;;;4.95;0.38;;;;;;;8.02;100.00;100627.91;5013263;28;20110;-52
2022/01/31 09:59:29;;;;;;;0.10;0.10;;;;;;;7.95;100.00;100644.78;5013838;28;20502;-52
2022/01/31 10:02:33;;;;;;;3.83;1.25;;;;;;;7.90;100.00;100654.41;5029714;28;20281;-52
2022/01/31 10:05:37;;;;;;;4.45;0.77;;;;;;;7.85;100.00;100657.69;5033256;28;20068;-52
2022/01/31 10:08:41;;;;;;;0.20;0.20;;;;;;;7.81;100.00;100661.78;5033266;28;20501;-52
2022/01/31 10:11:57;;;;;;;0.75;0.52;;;;;;;7.69;100.00;100670.84;5033146;28;20064;-52
2022/01/31 10:18:26;;;;;;;2.30;0.85;;;;;;;7.82;100.00;100664.13;5033177;28;20048;-52
2022/01/31 10:21:30;;;;;;;0.55;0.47;;;;;;;7.95;100.00;100672.50;5033061;28;20064;-52
2022/01/31 10:24:36;;;;;;;8.27;0.45;;;;;;;8.01;100.00;100704.03;5033376;28;20060;-52
2022/01/31 10:27:46;;;;;;;0.10;0.10;;;;;;;8.05;100.00;100710.25;5033150;28;20072;-52
2022/01/31 10:30:52;;;;;;;0.83;0.70;;;;;;;8.17;100.00;100712.28;5032264;28;20048;-52
2022/01/31 10:34:20;;;;;;;0.20;0.20;;;;;;;8.31;100.00;100711.94;5033287;28;20072;-52
2022/01/31 10:37:27;;;;;;;0.55;0.55;;;;;;;8.50;100.00;100691.56;5032824;28;20381;-52
2022/01/31 10:57:27;;;;;;;0.32;0.32;;;;;;;8.50;100.00;100702.66;5032690;28;20052;-52
2022/01/31 11:00:35;;;;;;;2.55;0.90;;;;;;;8.62;100.00;100721.34;5032524;28;20048;-52
2022/01/31 11:03:38;;;;;;;0.95;0.45;;;;;;;8.69;100.00;100718.34;5012942;28;20049;-52
2022/01/31 11:06:45;;;;;;;0.20;0.20;;;;;;;8.71;100.00;100729.03;5015644;28;20524;-52
2022/01/31 11:09:49;;;;;;;5.47;0.47;;;;;;;8.73;100.00;100738.47;5032234;28;20056;-52
2022/01/31 11:12:53;;;;;;;22.02;0.63;;;;;;;8.69;100.00;100737.81;5032166;28;20052;-52
2022/01/31 11:15:57;;;;;;;3.40;0.40;;;;;;;8.59;100.00;100750.00;5032633;28;20052;-52
2022/01/31 11:19:06;;;;;;;0.10;0.10;;;;;;;8.50;100.00;100758.19;5032195;28;20056;-52
2022/01/31 11:22:15;;;;;;;1.33;0.38;;;;;;;8.46;100.00;100762.28;5032156;28;20052;-52
2022/01/31 11:25:22;;;;;;;0.20;0.20;;;;;;;8.52;100.00;100777.97;5032139;28;20048;-52
2022/01/31 11:28:30;;;;;;;11.77;0.65;;;;;;;8.62;100.00;100771.31;5032316;28;20053;-52
2022/01/31 11:31:38;;;;;;;0.10;0.10;;;;;;;8.58;100.00;100770.63;5031666;28;20103;-51
2022/01/31 11:34:44;;;;;;;4.03;0.63;;;;;;;8.60;100.00;100784.84;5032244;28;20065;-51
2022/01/31 11:37:48;;;;;;;0.10;0.10;;;;;;;8.70;100.00;100778.25;5032339;28;20053;-52
2022/01/31 11:40:59;;;;;;;0.10;0.10;;;;;;;8.75;100.00;100780.47;5031580;28;20052;-51
2022/01/31 11:44:13;;;;;;;5.38;0.43;;;;;;;9.01;100.00;100784.84;5031969;28;20064;-51
2022/01/31 11:47:22;;;;;;;5.45;1.08;;;;;;;9.42;100.00;100788.78;5032453;28;20060;-51
2022/01/31 11:50:26;;;;;;;0.43;0.43;;;;;;;9.72;100.00;100785.44;5032041;28;20056;-51
2022/01/31 11:53:33;;;;;;;0.80;0.10;;;;;;;9.87;100.00;100789.31;5032255;28;20048;-51
2022/01/31 11:56:43;;;;;;;1.92;0.95;;;;;;;9.97;100.00;100779.81;5031811;28;20094;-51
2022/01/31 12:00:14;;;;;;;0.95;0.30;;;;;;;9.93;100.00;100790.28;5032361;28;20426;-51
2022/01/31 12:03:18;;;;;;;0.60;0.60;;;;;;;9.73;100.00;100784.97;5032283;28;20056;-51
2022/01/31 12:06:23;;;;;;;1.95;0.20;;;;;;;9.67;100.00;100780.41;5032242;28;20044;-51
2022/01/31 12:09:29;;;;;;;0.10;0.10;;;;;;;9.79;100.00;100779.63;5031073;28;20044;-51
2022/01/31 12:13:01;;;;;;;1.10;0.52;;;;;;;9.83;100.00;100778.28;5031520;28;20064;-51
2022/01/31 12:16:24;;;;;;;0.17;0.17;;;;;;;9.88;100.00;100782.50;5032115;28;20056;-51
2022/01/31 12:22:48;;;;;;;13.63;0.88;;;;;;;9.91;100.00;100787.19;5035360;28;20048;-51
2022/01/31 12:25:51;;;;;;;6.75;1.65;;;;;;;9.89;100.00;100787.63;5035439;28;20390;-51
2022/01/31 12:29:00;;;;;;;0.17;0.17;;;;;;;9.88;100.00;100788.84;5035692;28;20052;-51
2022/01/31 12:32:13;;;;;;;0.25;0.22;;;;;;;9.89;100.00;100778.50;5034973;28;20053;-51
2022/01/31 12:35:37;;;;;;;0.65;0.25;;;;;;;10.05;100.00;100792.25;5035332;28;20488;-51
2022/01/31 12:38:40;;;;;;;7.85;0.73;;;;;;;10.02;100.00;100782.03;5035180;28;20048;-51
2022/01/31 12:41:44;;;;;;;1.13;0.52;;;;;;;10.08;100.00;100788.59;5035461;28;20425;-51
2022/01/31 12:44:47;;;;;;;1.77;0.65;;;;;;;10.14;100.00;100775.66;5034679;28;20045;-51
2022/01/31 12:48:06;;;;;;;5.50;0.75;;;;;;;10.19;100.00;100774.31;5035411;28;20056;-51
2022/01/31 12:51:14;;;;;;;7.32;0.40;;;;;;;10.09;100.00;100776.19;5033980;28;20044;-51
2022/01/31 12:54:22;;;;;;;2.38;1.10;;;;;;;10.04;100.00;100774.00;5034830;28;20113;-50
2022/01/31 12:57:26;;;;;;;4.00;0.40;;;;;;;10.02;100.00;100776.47;5034714;28;20071;-51
2022/01/31 13:00:40;;;;;;;9.85;1.40;;;;;;;10.08;100.00;100779.44;5035066;28;20052;-51
2022/01/31 13:03:50;;;;;;;8.90;1.30;;;;;;;10.07;100.00;100792.56;5034526;28;20048;-51
2022/01/31 13:07:07;;;;;;;0.25;0.10;;;;;;;9.94;100.00;100787.03;5034505;28;20405;-51
2022/01/31 13:10:12;;;;;;;0.63;0.35;;;;;;;9.88;100.00;100796.41;5034585;28;20053;-51
2022/01/31 13:13:16;;;;;;;2.22;0.10;;;;;;;9.88;100.00;100794.41;5034227;28;20060;-51
2022/01/31 13:16:21;;;;;;;0.70;0.10;;;;;;;9.80;100.00;100781.19;5034525;28;20056;-51
2022/01/31 13:19:28;;;;;;;1.00;0.40;;;;;;;9.79;100.00;100793.53;5034069;28;20410;-50
2022/01/31 13:22:41;;;;;;;0.70;0.28;;;;;;;9.74;100.00;100792.09;5034331;28;20398;-50
2022/01/31 13:25:44;;;;;;;3.67;0.38;;;;;;;9.71;100.00;100783.88;5033756;28;20052;-50
2022/01/31 13:28:50;;;;;;;5.38;1.25;;;;;;;9.78;100.00;100783.63;5033551;28;20056;-50
2022/01/31 13:31:54;;;;;;;3.15;0.82;;;;;;;9.85;100.00;100788.97;5033839;28;20068;-50
2022/01/31 13:35:00;;;;;;;4.97;2.42;;;;;;;9.87;100.00;100786.53;5033883;28;20500;-50
2022/01/31 13:38:06;;;;;;;0.75;0.73;;;;;;;9.91;100.00;100787.19;5033803;28;20057;-52
2022/01/31 13:41:11;;;;;;;11.07;1.33;;;;;;;9.89;100.00;100779.28;5033773;28;20048;-51
2022/01/31 13:44:14;;;;;;;3.55;0.93;;;;;;;9.91;100.00;100787.19;5033605;28;20052;-50
2022/01/31 13:47:36;;;;;;;0.68;0.65;;;;;;;9.94;100.00;100794.59;5033482;28;20060;-50
2022/01/31 13:50:44;;;;;;;3.92;0.45;;;;;;;10.04;100.00;100795.50;5032882;28;20053;-50
2022/01/31 13:53:48;;;;;;;1.40;0.57;;;;;;;10.05;100.00;100781.13;5033319;28;20052;-50
2022/01/31 13:57:00;;;;;;;0.10;0.10;;;;;;;10.06;100.00;100793.03;5032412;28;20056;-52
2022/01/31 14:00:04;;;;;;;1.17;0.95;;;;;;;9.91;100.00;100787.97;5033476;28;20052;-51
2022/01/31 14:03:12;;;;;;;0.20;0.10;;;;;;;9.79;100.00;100790.75;5032385;28;20052;-51
2022/01/31 14:06:19;;;;;;;0.45;0.20;;;;;;;9.70;100.00;100804.56;5033592;28;20048;-50
2022/01/31 14:09:31;;;;;;;1.90;0.73;;;;;;;9.77;100.00;100801.53;5024994;28;20056;-50
2022/01/31 14:12:36;;;;;;;4.47;0.68;;;;;;;9.81;100.00;100814.09;5032922;28;20052;-50
2022/01/31 14:15:46;;;;;;;0.10;0.10;;;;;;;9.83;100.00;100816.47;5032991;28;20064;-51
2022/01/31 14:18:52;;;;;;;4.75;0.75;;;;;;;9.82;100.00;100817.69;5033345;28;20056;-51
2022/01/31 14:21:56;;;;;;;3.75;0.57;;;;;;;9.71;100.00;100822.81;5032115;28;20048;-51
2022/01/31 14:25:11;;;;;;;0.73;0.25;;;;;;;9.70;100.00;100810.13;5032575;28;20401;-50
2022/01/31 14:28:16;;;;;;;0.28;0.28;;;;;;;9.65;100.00;100819.03;5032546;28;20048;-51
2022/01/31 14:31:49;;;;;;;2.22;0.38;;;;;;;9.67;100.00;100805.44;5032321;28;20044;-49
2022/01/31 14:34:59;;;;;;;0.55;0.25;;;;;;;9.81;100.00;100810.56;5031857;28;20052;-49
2022/01/31 14:38:15;;;;;;;2.60;1.10;;;;;;;9.78;100.00;100817.03;5032619;28;20056;-49
2022/01/31 14:41:34;;;;;;;0.25;0.25;;;;;;;9.71;100.00;100811.69;5032438;28;20493;-49
2022/01/31 14:48:33;;;;;;;3.97;1.02;;;;;;;9.53;100.00;100808.69;5029029;28;20053;-50
2022/01/31 14:51:39;;;;;;;14.55;0.85;;;;;;;9.47;100.00;100814.03;5032349;28;20044;-50
2022/01/31 14:54:57;;;;;;;0.47;0.47;;;;;;;9.34;100.00;100816.00;5032249;28;20394;-50
2022/01/31 14:58:01;;;;;;;0.35;0.35;;;;;;;9.31;100.00;100816.13;5032965;28;20048;-50
2022/01/31 15:01:06;;;;;;;1.83;0.60;;;;;;;9.30;100.00;100814.56;5031632;28;20413;-50